Time;durP1;ratioP1;P1;durP2;ratioP2;P2;SDS_P1;SDS_P2;PMS_P1;PMS_P2;Temp;Humidity;BMP_temperature;BMP_pressure;BME280_temperature;BME280_humidity;BME280_pressure;Samples;Min_cycle;Max_cycle;Signal;HPM_P1;HPM_P2
2023/08/06 00:02:05;;;;;;;4.30;3.00;;;;;;;15.16;100.00;100293.41;5097198;28;20097;-51
2023/08/06 00:04:31;;;;;;;3.85;2.90;;;;;;;15.16;100.00;100290.75;5094425;28;20114;-50
2023/08/06 00:06:56;;;;;;;3.22;2.75;;;;;;;15.14;100.00;100292.75;5095876;28;20034;-49
2023/08/06 00:09:21;;;;;;;3.90;2.75;;;;;;;15.12;100.00;100292.03;5096703;28;20020;-49
2023/08/06 00:11:46;;;;;;;3.63;2.70;;;;;;;15.13;100.00;100299.91;5098479;28;20036;-50
2023/08/06 00:14:15;;;;;;;4.28;2.80;;;;;;;15.14;100.00;100292.75;5099911;28;20489;-50
2023/08/06 00:16:43;;;;;;;4.03;2.87;;;;;;;15.15;100.00;100291.72;5098665;28;20038;-50
2023/08/06 00:19:08;;;;;;;4.18;2.90;;;;;;;15.14;100.00;100287.38;5098207;28;20032;-49
2023/08/06 00:21:33;;;;;;;4.25;2.95;;;;;;;15.13;100.00;100286.53;5093181;28;20085;-49
2023/08/06 00:23:58;;;;;;;4.68;3.00;;;;;;;15.16;100.00;100282.72;5100962;28;20028;-52
2023/08/06 00:26:24;;;;;;;4.43;2.67;;;;;;;15.17;100.00;100279.88;5097348;28;20020;-49
2023/08/06 00:28:49;;;;;;;3.83;2.92;;;;;;;15.18;100.00;100286.06;5097220;28;20055;-49
2023/08/06 00:31:15;;;;;;;3.85;2.97;;;;;;;15.18;100.00;100283.38;5099312;28;20055;-49
2023/08/06 00:33:40;;;;;;;2.60;2.40;;;;;;;15.15;100.00;100281.03;5088539;28;20022;-50
2023/08/06 00:36:05;;;;;;;3.13;2.70;;;;;;;15.17;100.00;100281.69;5095118;28;20032;-50
2023/08/06 00:38:30;;;;;;;3.00;2.70;;;;;;;15.15;100.00;100281.88;5095366;28;20073;-52
2023/08/06 00:40:56;;;;;;;4.50;2.75;;;;;;;15.18;100.00;100284.22;5099274;28;20028;-50
2023/08/06 00:43:21;;;;;;;3.33;2.97;;;;;;;15.17;100.00;100274.53;5099245;28;20063;-50
2023/08/06 00:45:46;;;;;;;5.80;3.00;;;;;;;15.12;100.00;100281.34;5093004;28;20446;-49
2023/08/06 00:48:12;;;;;;;5.30;2.55;;;;;;;15.07;100.00;100276.50;5097193;28;20026;-49
2023/08/06 00:50:38;;;;;;;4.75;3.00;;;;;;;15.06;100.00;100268.63;5096114;28;20034;-50
2023/08/06 00:53:03;;;;;;;4.50;2.85;;;;;;;15.06;100.00;100273.97;5093997;28;20020;-50
2023/08/06 00:55:29;;;;;;;2.78;2.53;;;;;;;15.01;100.00;100277.13;5094326;28;20020;-49
2023/08/06 00:57:56;;;;;;;5.50;2.58;;;;;;;15.02;100.00;100272.63;5095023;28;20066;-51
2023/08/06 01:00:22;;;;;;;3.83;2.53;;;;;;;15.03;100.00;100279.66;5095782;28;20437;-51
2023/08/06 01:02:48;;;;;;;6.07;3.00;;;;;;;15.01;100.00;100273.63;5093093;28;20042;-50
2023/08/06 01:05:14;;;;;;;7.05;2.78;;;;;;;14.98;100.00;100275.59;5100427;28;20027;-53
2023/08/06 01:08:08;;;;;;;4.00;2.80;;;;;;;15.03;100.00;100275.13;5099647;28;20530;-51
2023/08/06 01:10:54;;;;;;;6.70;2.85;;;;;;;15.02;100.00;100268.13;5092626;28;20020;-52
2023/08/06 01:13:35;;;;;;;2.90;2.50;;;;;;;15.04;100.00;100265.25;5097091;28;20152;-50
2023/08/06 01:16:02;;;;;;;2.88;2.55;;;;;;;14.99;100.00;100263.09;5096961;28;20047;-50
2023/08/06 01:18:27;;;;;;;3.35;2.60;;;;;;;14.99;100.00;100261.25;5090201;28;20074;-51
2023/08/06 01:20:52;;;;;;;4.30;2.58;;;;;;;14.99;100.00;100263.09;5096874;28;20070;-50
2023/08/06 01:23:19;;;;;;;3.97;2.65;;;;;;;15.01;100.00;100263.75;5096520;28;20446;-51
2023/08/06 01:25:58;;;;;;;5.45;2.55;;;;;;;15.04;100.00;100268.78;5095844;28;20033;-51
2023/08/06 01:28:30;;;;;;;5.45;2.60;;;;;;;15.04;100.00;100268.78;5096588;28;20035;-50
2023/08/06 01:30:59;;;;;;;3.78;2.80;;;;;;;15.03;100.00;100272.44;5095945;28;20584;-50
2023/08/06 01:33:27;;;;;;;6.30;2.75;;;;;;;15.01;100.00;100266.44;5097196;28;20674;-50
2023/08/06 01:35:54;;;;;;;3.45;2.80;;;;;;;15.00;100.00;100264.75;5095163;28;20064;-50
2023/08/06 01:38:20;;;;;;;4.93;2.60;;;;;;;15.01;100.00;100260.25;5097805;28;20085;-50
2023/08/06 01:40:45;;;;;;;4.50;2.40;;;;;;;15.03;100.00;100274.28;5099401;28;20477;-50
2023/08/06 01:43:10;;;;;;;3.72;2.80;;;;;;;15.02;100.00;100261.91;5095749;28;20040;-50
2023/08/06 01:45:36;;;;;;;7.22;2.90;;;;;;;15.03;100.00;100264.44;5099020;28;20027;-50
2023/08/06 01:48:01;;;;;;;4.80;2.70;;;;;;;15.04;100.00;100257.22;5094135;28;20040;-50
2023/08/06 01:50:27;;;;;;;4.55;3.05;;;;;;;15.04;100.00;100259.91;5098632;28;20454;-49
2023/08/06 01:52:52;;;;;;;3.97;2.80;;;;;;;15.05;100.00;100258.91;5098958;28;20389;-49
2023/08/06 01:55:18;;;;;;;5.15;2.80;;;;;;;15.06;100.00;100256.09;5094417;28;20020;-50
2023/08/06 01:57:43;;;;;;;5.75;2.78;;;;;;;15.03;100.00;100252.91;5091421;28;20032;-50
2023/08/06 02:00:09;;;;;;;3.60;2.58;;;;;;;15.03;100.00;100258.25;5098701;28;20028;-49
2023/08/06 02:02:34;;;;;;;5.30;2.70;;;;;;;15.01;100.00;100261.09;5095230;28;20549;-51
2023/08/06 02:04:59;;;;;;;4.32;2.75;;;;;;;15.00;100.00;100262.06;5100297;28;20046;-51
2023/08/06 02:07:25;;;;;;;3.38;2.45;;;;;;;14.98;100.00;100256.06;5100095;28;20385;-50
2023/08/06 02:09:50;;;;;;;6.72;2.72;;;;;;;14.98;100.00;100266.75;5101108;28;20107;-52
2023/08/06 02:12:15;;;;;;;3.63;2.78;;;;;;;14.99;100.00;100266.59;5093917;28;20036;-50
2023/08/06 02:14:40;;;;;;;4.05;2.60;;;;;;;14.99;100.00;100265.75;5099388;28;20031;-50
2023/08/06 02:17:06;;;;;;;4.72;2.47;;;;;;;14.98;100.00;100267.56;5099694;28;20068;-50
2023/08/06 02:19:31;;;;;;;4.93;2.60;;;;;;;14.97;100.00;100262.38;5098461;28;20471;-50
2023/08/06 02:21:56;;;;;;;4.25;2.60;;;;;;;14.99;100.00;100265.75;5099705;28;20064;-50
2023/08/06 02:24:22;;;;;;;3.88;2.60;;;;;;;15.01;100.00;100271.78;5097417;28;20028;-49
2023/08/06 02:26:50;;;;;;;6.93;2.60;;;;;;;14.99;100.00;100266.59;5098255;28;20032;-50
2023/08/06 02:29:16;;;;;;;4.18;2.50;;;;;;;15.00;100.00;100267.41;5097425;28;20080;-49
2023/08/06 02:31:41;;;;;;;6.13;3.10;;;;;;;15.01;100.00;100269.09;5101012;28;20024;-50
2023/08/06 02:34:06;;;;;;;4.53;2.85;;;;;;;15.03;100.00;100268.94;5105028;28;20029;-50
2023/08/06 02:36:32;;;;;;;3.05;2.75;;;;;;;15.03;100.00;100267.09;5099287;28;20027;-50
2023/08/06 02:38:57;;;;;;;4.47;2.85;;;;;;;15.02;100.00;100265.44;5096076;28;20397;-50
2023/08/06 02:41:22;;;;;;;6.75;3.28;;;;;;;15.02;100.00;100265.44;5102994;28;20078;-49
2023/08/06 02:43:48;;;;;;;4.40;2.70;;;;;;;15.02;100.00;100262.78;5098838;28;20508;-50
2023/08/06 02:46:13;;;;;;;3.60;2.92;;;;;;;15.01;100.00;100263.75;5098340;28;20067;-49
2023/08/06 02:48:38;;;;;;;6.18;3.28;;;;;;;15.02;100.00;100260.09;5103995;28;20541;-50
2023/08/06 02:51:04;;;;;;;3.50;2.70;;;;;;;14.99;100.00;100258.56;5100183;28;20025;-51
2023/08/06 02:53:29;;;;;;;3.42;2.88;;;;;;;14.96;100.00;100248.19;5099460;28;20024;-50
2023/08/06 02:55:55;;;;;;;4.95;3.00;;;;;;;15.02;100.00;100257.44;5102785;28;20028;-50
2023/08/06 02:58:23;;;;;;;7.57;3.08;;;;;;;15.02;100.00;100256.56;5098481;28;20031;-51
2023/08/06 03:01:02;;;;;;;4.43;3.25;;;;;;;15.07;100.00;100259.59;5102657;28;20040;-49
2023/08/06 03:03:27;;;;;;;;;;;;;;;15.22;100.00;100258.00;5099047;28;20031;-51
2023/08/06 03:05:53;;;;;;;4.00;2.67;;;;;;;15.06;100.00;100252.59;5097861;28;20359;-52
2023/08/06 03:08:22;;;;;;;4.05;2.80;;;;;;;15.05;100.00;100259.75;5092442;28;20021;-50
2023/08/06 03:10:47;;;;;;;3.85;2.58;;;;;;;15.05;100.00;100257.06;5098498;28;20051;-50
2023/08/06 03:13:12;;;;;;;4.60;2.70;;;;;;;15.05;100.00;100256.25;5097641;28;20445;-51
2023/08/06 03:15:38;;;;;;;4.85;2.88;;;;;;;15.06;100.00;100257.94;5095725;28;20027;-52
2023/08/06 03:18:03;;;;;;;2.78;2.45;;;;;;;15.07;100.00;100260.44;5100812;28;20519;-50
2023/08/06 03:20:28;;;;;;;3.63;2.63;;;;;;;15.07;100.00;100252.44;5095795;28;20127;-50
2023/08/06 03:22:54;;;;;;;5.72;2.42;;;;;;;15.11;100.00;100258.28;5103004;28;20111;-49
2023/08/06 03:25:19;;;;;;;3.05;2.75;;;;;;;15.11;100.00;100264.47;5096992;28;20047;-50
2023/08/06 03:27:44;;;;;;;6.97;2.97;;;;;;;15.14;100.00;100263.31;5098113;28;20031;-49
2023/08/06 03:30:10;;;;;;;5.53;3.05;;;;;;;15.11;100.00;100266.31;5097724;28;20160;-50
2023/08/06 03:32:35;;;;;;;6.53;3.28;;;;;;;15.13;100.00;100259.78;5103144;28;20076;-49
2023/08/06 03:35:01;;;;;;;3.78;2.67;;;;;;;15.13;100.00;100258.94;5097698;28;20037;-50
2023/08/06 03:37:26;;;;;;;4.03;3.20;;;;;;;15.15;100.00;100268.50;5099426;28;20031;-50
2023/08/06 03:39:51;;;;;;;7.68;2.97;;;;;;;15.16;100.00;100263.97;5094272;28;20861;-50
2023/08/06 03:42:16;;;;;;;4.47;3.20;;;;;;;15.17;100.00;100262.97;5098629;28;20023;-50
2023/08/06 03:44:42;;;;;;;4.15;3.00;;;;;;;15.18;100.00;100268.16;5096605;28;20051;-49
2023/08/06 03:47:07;;;;;;;6.15;3.35;;;;;;;15.16;100.00;100261.31;5099201;28;20470;-51
2023/08/06 03:49:32;;;;;;;3.83;3.08;;;;;;;15.13;100.00;100259.78;5097060;28;20032;-52
2023/08/06 03:51:58;;;;;;;4.47;3.45;;;;;;;15.16;100.00;100261.31;5097803;28;20016;-52
2023/08/06 03:54:23;;;;;;;6.15;3.22;;;;;;;15.17;100.00;100271.00;5102248;28;20477;-51
2023/08/06 03:56:48;;;;;;;4.82;3.40;;;;;;;15.16;100.00;100264.81;5100505;28;20489;-50
2023/08/06 03:59:14;;;;;;;5.50;3.17;;;;;;;15.15;100.00;100268.50;5098505;28;20031;-50
2023/08/06 04:01:39;;;;;;;6.32;3.08;;;;;;;15.16;100.00;100272.00;5100707;28;20842;-52
2023/08/06 04:04:04;;;;;;;7.80;3.40;;;;;;;15.15;100.00;100268.50;5097832;28;20469;-52
2023/08/06 04:06:29;;;;;;;6.03;3.15;;;;;;;15.13;100.00;100267.81;5099472;28;20027;-51
2023/08/06 04:08:55;;;;;;;4.68;3.10;;;;;;;15.13;100.00;100275.00;5097559;28;20024;-53
2023/08/06 04:11:20;;;;;;;4.03;2.90;;;;;;;15.09;100.00;100271.00;5100587;28;20081;-51
2023/08/06 04:13:45;;;;;;;6.25;3.05;;;;;;;15.07;100.00;100275.63;5097519;28;20053;-54
2023/08/06 04:16:11;;;;;;;4.53;2.88;;;;;;;15.07;100.00;100272.97;5097178;28;20108;-53
2023/08/06 04:18:36;;;;;;;5.55;2.90;;;;;;;15.01;100.00;100270.97;5095829;28;20269;-51
2023/08/06 04:21:02;;;;;;;5.15;3.13;;;;;;;15.00;100.00;100280.78;5099246;28;20106;-51
2023/08/06 04:23:27;;;;;;;5.75;3.20;;;;;;;14.95;100.00;100275.09;5100994;28;20469;-52
2023/08/06 04:25:57;;;;;;;6.78;3.30;;;;;;;14.93;100.00;100277.91;5096667;27;20028;-50
2023/08/06 04:28:22;;;;;;;5.32;3.70;;;;;;;14.93;100.00;100285.94;5096202;28;20027;-52
2023/08/06 04:30:47;;;;;;;5.33;3.50;;;;;;;14.90;100.00;100280.06;5098834;28;20024;-50
2023/08/06 04:33:12;;;;;;;4.28;3.88;;;;;;;14.86;100.00;100282.25;5098595;28;20856;-51
2023/08/06 04:35:38;;;;;;;5.40;3.42;;;;;;;14.89;100.00;100283.75;5094622;28;20047;-50
2023/08/06 04:38:03;;;;;;;6.22;4.13;;;;;;;14.86;100.00;100290.25;5102260;28;20115;-51
2023/08/06 04:40:28;;;;;;;5.95;3.78;;;;;;;14.86;100.00;100292.09;5096547;28;20095;-51
2023/08/06 04:42:54;;;;;;;4.40;3.80;;;;;;;14.85;100.00;100293.91;5098960;28;20101;-52
2023/08/06 04:45:19;;;;;;;5.88;3.85;;;;;;;14.84;100.00;100291.41;5095254;28;20479;-51
2023/08/06 04:47:44;;;;;;;5.43;3.70;;;;;;;14.85;100.00;100301.13;5097429;28;20110;-50
2023/08/06 04:50:10;;;;;;;6.70;3.75;;;;;;;14.87;100.00;100299.13;5092622;28;20111;-53
2023/08/06 04:52:36;;;;;;;8.27;4.13;;;;;;;14.87;100.00;100293.75;5094766;28;20024;-52
2023/08/06 04:55:01;;;;;;;9.15;5.35;;;;;;;14.87;100.00;100299.97;5096936;28;20492;-50
2023/08/06 04:57:27;;;;;;;5.78;4.15;;;;;;;14.85;100.00;100301.94;5094584;28;20024;-51
2023/08/06 04:59:52;;;;;;;7.20;4.30;;;;;;;14.87;100.00;100297.28;5096161;28;20031;-51
2023/08/06 05:02:17;;;;;;;6.85;4.18;;;;;;;14.90;100.00;100301.47;5097802;28;20739;-50
2023/08/06 05:04:43;;;;;;;6.72;4.03;;;;;;;14.90;100.00;100299.63;5093332;28;20028;-49
2023/08/06 05:07:08;;;;;;;5.47;4.93;;;;;;;14.91;100.00;100300.50;5097226;28;20026;-50
2023/08/06 05:09:33;;;;;;;5.82;5.10;;;;;;;14.94;100.00;100310.88;5098783;28;20060;-50
2023/08/06 05:12:03;;;;;;;5.80;4.75;;;;;;;14.95;100.00;100313.38;5098646;28;20044;-52
2023/08/06 05:14:29;;;;;;;7.88;5.13;;;;;;;14.93;100.00;100309.19;5097733;28;20020;-52
2023/08/06 05:16:54;;;;;;;7.32;4.65;;;;;;;14.95;100.00;100313.38;5094792;28;20024;-50
2023/08/06 05:19:19;;;;;;;5.35;4.75;;;;;;;14.97;100.00;100318.53;5097890;28;20526;-50
2023/08/06 05:21:45;;;;;;;6.30;4.75;;;;;;;14.99;100.00;100317.41;5099124;28;20028;-53
2023/08/06 05:24:10;;;;;;;6.82;5.20;;;;;;;15.01;100.00;100314.56;5097154;28;20051;-51
2023/08/06 05:26:35;;;;;;;5.65;4.57;;;;;;;15.06;100.00;100332.81;5098511;28;20101;-50
2023/08/06 05:29:01;;;;;;;6.30;4.63;;;;;;;15.06;100.00;100319.44;5091414;28;20421;-50
2023/08/06 05:31:28;;;;;;;5.80;5.18;;;;;;;15.08;100.00;100336.16;5096218;28;20080;-50
2023/08/06 05:33:53;;;;;;;4.82;4.40;;;;;;;15.10;100.00;100329.66;5089395;28;20028;-50
2023/08/06 05:36:19;;;;;;;8.30;5.50;;;;;;;15.14;100.00;100339.03;5096532;28;20024;-50
2023/08/06 05:38:44;;;;;;;6.88;5.38;;;;;;;15.15;100.00;100338.06;5095165;28;20081;-50
2023/08/06 05:41:09;;;;;;;5.72;5.18;;;;;;;15.21;100.00;100349.94;5101374;28;20373;-50
2023/08/06 05:43:35;;;;;;;10.10;5.30;;;;;;;15.24;100.00;100351.44;5097639;28;20129;-49
2023/08/06 05:46:00;;;;;;;6.57;5.05;;;;;;;15.26;100.00;100358.31;5101858;28;20385;-49
2023/08/06 05:48:27;;;;;;;8.10;5.43;;;;;;;15.29;100.00;100362.53;5098672;28;20084;-50
2023/08/06 05:50:53;;;;;;;6.03;5.43;;;;;;;15.29;100.00;100365.22;5102831;28;20429;-50
2023/08/06 05:53:18;;;;;;;8.85;5.18;;;;;;;15.33;100.00;100366.56;5093047;28;20161;-50
2023/08/06 05:55:45;;;;;;;7.22;5.25;;;;;;;15.34;100.00;100368.25;5098981;28;20073;-53
2023/08/06 05:58:10;;;;;;;8.40;5.22;;;;;;;15.37;100.00;100370.59;5097810;28;20105;-49
2023/08/06 06:00:36;;;;;;;6.75;5.60;;;;;;;15.38;100.00;100374.09;5087705;28;20063;-49
2023/08/06 06:03:02;;;;;;;6.57;4.78;;;;;;;15.37;100.00;100378.63;5095182;28;20072;-49
2023/08/06 06:05:28;;;;;;;5.85;5.20;;;;;;;15.38;100.00;100376.78;5098797;28;20034;-49
2023/08/06 06:07:53;;;;;;;9.10;5.53;;;;;;;15.39;100.00;100379.28;5085799;28;20032;-48
2023/08/06 06:10:18;;;;;;;7.70;5.60;;;;;;;15.39;100.00;100383.78;5098704;28;20034;-48
2023/08/06 06:12:44;;;;;;;6.22;5.47;;;;;;;15.45;100.00;100392.00;5094361;28;20060;-49
2023/08/06 06:15:09;;;;;;;8.00;5.63;;;;;;;15.45;100.00;100397.38;5090330;28;20056;-49
2023/08/06 06:17:35;;;;;;;9.60;5.90;;;;;;;15.45;100.00;100400.03;5091997;28;20107;-50
2023/08/06 06:20:00;;;;;;;11.88;6.15;;;;;;;15.46;100.00;100407.09;5091715;28;20035;-50
2023/08/06 06:22:26;;;;;;;6.90;5.10;;;;;;;15.47;100.00;100410.59;5097440;28;20024;-50
2023/08/06 06:24:51;;;;;;;7.18;4.30;;;;;;;15.45;100.00;100407.25;5100670;28;20385;-49
2023/08/06 06:27:16;;;;;;;7.20;4.10;;;;;;;15.42;100.00;100408.41;5095807;28;20406;-48
2023/08/06 06:29:42;;;;;;;5.50;4.20;;;;;;;15.43;100.00;100414.59;5095237;28;20290;-49
2023/08/06 06:32:07;;;;;;;7.03;4.50;;;;;;;15.42;100.00;100418.25;5092170;28;20051;-49
2023/08/06 06:34:32;;;;;;;5.38;4.47;;;;;;;15.39;100.00;100423.94;5098214;28;20024;-50
2023/08/06 06:36:58;;;;;;;3.92;3.45;;;;;;;15.40;100.00;100428.28;5095161;28;20031;-48
2023/08/06 06:39:23;;;;;;;2.80;2.60;;;;;;;15.33;100.00;100436.13;5098461;27;20039;-51
2023/08/06 06:41:48;;;;;;;1.42;1.33;;;;;;;15.21;100.00;100448.09;5095799;28;20016;-50
2023/08/06 06:44:14;;;;;;;1.40;1.30;;;;;;;15.11;100.00;100445.53;5101022;28;20055;-49
2023/08/06 06:46:40;;;;;;;1.38;1.27;;;;;;;14.99;100.00;100448.44;5093538;28;20032;-50
2023/08/06 06:49:05;;;;;;;1.10;1.10;;;;;;;14.89;100.00;100458.41;5101629;28;20031;-50
2023/08/06 06:51:31;;;;;;;2.05;1.23;;;;;;;14.76;100.00;100453.44;5091907;28;20027;-48
2023/08/06 06:53:57;;;;;;;1.27;1.10;;;;;;;14.66;100.00;100465.22;5100032;28;20492;-51
2023/08/06 06:56:22;;;;;;;1.60;1.50;;;;;;;14.57;100.00;100466.94;5097335;28;20040;-49
2023/08/06 06:58:47;;;;;;;2.80;1.70;;;;;;;14.52;100.00;100470.09;5094109;28;20027;-52
2023/08/06 07:01:13;;;;;;;5.15;2.10;;;;;;;14.48;100.00;100475.88;5093041;28;20112;-49
2023/08/06 07:03:38;;;;;;;2.15;1.95;;;;;;;14.45;100.00;100469.00;5095442;28;20124;-49
2023/08/06 07:06:05;;;;;;;5.15;1.85;;;;;;;14.35;100.00;100477.06;5098256;28;20043;-50
2023/08/06 07:08:30;;;;;;;2.67;2.13;;;;;;;14.30;100.00;100475.88;5096027;28;20051;-49
2023/08/06 07:11:02;;;;;;;3.33;2.20;;;;;;;14.28;100.00;100486.69;5097166;28;20040;-51
2023/08/06 07:13:28;;;;;;;4.90;2.70;;;;;;;14.23;100.00;100486.31;5095919;28;20028;-52
2023/08/06 07:15:55;;;;;;;2.72;2.47;;;;;;;14.23;100.00;100499.66;5097489;28;20413;-50
2023/08/06 07:18:20;;;;;;;4.85;2.97;;;;;;;14.17;100.00;100506.47;5094182;28;20111;-51
2023/08/06 07:20:53;;;;;;;7.10;2.92;;;;;;;14.15;100.00;100495.06;5090572;28;20225;-54
2023/08/06 07:23:20;;;;;;;3.50;3.20;;;;;;;14.10;100.00;100500.00;5102102;28;20027;-50
2023/08/06 07:25:46;;;;;;;5.32;3.10;;;;;;;14.09;100.00;100500.16;5099607;28;20593;-50
2023/08/06 07:28:12;;;;;;;3.63;3.00;;;;;;;14.10;100.00;100518.69;5098383;28;20068;-51
2023/08/06 07:30:38;;;;;;;5.18;3.30;;;;;;;14.06;100.00;100518.16;5095756;28;20466;-52
2023/08/06 07:33:04;;;;;;;4.63;3.65;;;;;;;14.03;100.00;100523.78;5091468;28;20447;-50
2023/08/06 07:35:29;;;;;;;5.65;4.03;;;;;;;14.02;100.00;100526.63;5099643;28;20015;-50
2023/08/06 07:37:54;;;;;;;5.05;4.13;;;;;;;14.01;100.00;100530.28;5093765;28;20039;-53
2023/08/06 07:40:20;;;;;;;5.90;3.85;;;;;;;14.02;100.00;100529.28;5094566;28;20381;-50
2023/08/06 07:42:45;;;;;;;6.35;4.43;;;;;;;14.03;100.00;100530.97;5090376;28;20146;-49
2023/08/06 07:45:11;;;;;;;6.57;4.00;;;;;;;14.03;100.00;100536.31;5096452;28;20148;-49
2023/08/06 07:47:36;;;;;;;7.82;4.38;;;;;;;14.05;100.00;100537.00;5096469;28;20382;-49
2023/08/06 07:50:01;;;;;;;5.20;4.60;;;;;;;14.03;100.00;100539.81;5090989;28;20478;-52
2023/08/06 07:52:27;;;;;;;7.03;5.00;;;;;;;14.02;100.00;100546.16;5093888;28;20446;-49
2023/08/06 07:54:52;;;;;;;6.53;4.55;;;;;;;14.01;100.00;100535.63;5093296;28;20421;-49
2023/08/06 07:57:17;;;;;;;9.23;4.67;;;;;;;14.04;100.00;100551.38;5098271;28;20027;-49
2023/08/06 07:59:42;;;;;;;9.15;5.30;;;;;;;14.06;100.00;100544.88;5094817;28;20269;-49
2023/08/06 08:02:08;;;;;;;7.00;5.30;;;;;;;14.12;100.00;100539.94;5093117;28;20051;-50
2023/08/06 08:04:33;;;;;;;8.98;4.95;;;;;;;14.12;100.00;100548.78;5095167;28;20027;-49
2023/08/06 08:06:59;;;;;;;10.35;4.88;;;;;;;14.14;100.00;100549.47;5094375;28;20128;-48
2023/08/06 08:09:24;;;;;;;11.18;4.78;;;;;;;14.13;100.00;100538.94;5090429;28;20028;-48
2023/08/06 08:11:50;;;;;;;7.28;4.40;;;;;;;14.15;100.00;100543.13;5097504;28;20046;-47
2023/08/06 08:14:15;;;;;;;7.90;4.03;;;;;;;14.17;100.00;100551.88;5094594;28;20385;-50
2023/08/06 08:16:41;;;;;;;7.68;4.22;;;;;;;14.19;100.00;100541.88;5092466;28;20028;-48
2023/08/06 08:19:06;;;;;;;5.72;4.25;;;;;;;14.20;100.00;100542.69;5087939;28;20024;-49
2023/08/06 08:21:31;;;;;;;8.95;4.63;;;;;;;14.22;100.00;100552.25;5098095;28;20032;-47
2023/08/06 08:23:59;;;;;;;7.70;4.30;;;;;;;14.23;100.00;100555.75;5091934;28;20024;-49
2023/08/06 08:26:27;;;;;;;9.48;3.88;;;;;;;14.21;100.00;100553.22;5095705;28;20072;-51
2023/08/06 08:28:52;;;;;;;7.53;3.92;;;;;;;14.20;100.00;100554.22;5091110;28;20027;-49
2023/08/06 08:31:18;;;;;;;5.60;2.80;;;;;;;14.17;100.00;100561.69;5096515;28;20034;-49
2023/08/06 08:33:43;;;;;;;4.93;3.20;;;;;;;14.15;100.00;100559.16;5095908;28;20111;-49
2023/08/06 08:36:09;;;;;;;5.38;3.17;;;;;;;14.14;100.00;100568.19;5096418;28;20028;-50
2023/08/06 08:38:35;;;;;;;5.07;3.00;;;;;;;14.14;100.00;100572.66;5093059;28;20027;-50
2023/08/06 08:41:00;;;;;;;12.27;3.90;;;;;;;14.13;100.00;100571.00;5099245;28;20035;-49
2023/08/06 08:43:27;;;;;;;6.85;2.88;;;;;;;14.11;100.00;100581.00;5090916;28;20147;-50
2023/08/06 08:45:58;;;;;;;8.38;3.10;;;;;;;14.06;100.00;100576.91;5089879;28;20024;-48
2023/08/06 08:48:24;;;;;;;10.30;3.42;;;;;;;14.05;100.00;100590.41;5073310;28;20448;-48
2023/08/06 08:50:50;;;;;;;6.95;3.38;;;;;;;14.06;100.00;100592.94;5084915;28;20020;-49
2023/08/06 08:53:17;;;;;;;5.78;3.28;;;;;;;14.05;100.00;100580.59;5092756;28;20032;-47
2023/08/06 08:55:47;;;;;;;6.43;3.60;;;;;;;14.06;100.00;100589.44;5092467;28;20028;-48
2023/08/06 08:58:13;;;;;;;8.05;3.97;;;;;;;14.07;100.00;100599.09;5093476;28;20119;-48
2023/08/06 09:00:42;;;;;;;7.50;4.10;;;;;;;14.06;100.00;100595.59;5092860;28;20750;-48
2023/08/06 09:03:07;;;;;;;9.95;4.57;;;;;;;14.06;100.00;100600.94;5096185;28;20024;-48
2023/08/06 09:05:33;;;;;;;9.75;4.00;;;;;;;14.05;100.00;100603.75;5095319;28;20024;-48
2023/08/06 09:08:05;;;;;;;5.20;3.95;;;;;;;14.04;100.00;100608.28;5093844;28;20386;-48
2023/08/06 09:10:31;;;;;;;11.10;4.47;;;;;;;14.02;100.00;100607.59;5089472;28;20030;-49
2023/08/06 09:12:57;;;;;;;6.60;4.22;;;;;;;14.05;100.00;100617.13;5089568;28;20089;-50
2023/08/06 09:15:27;;;;;;;9.13;4.10;;;;;;;14.05;100.00;100614.44;5091313;28;20039;-49
2023/08/06 09:17:53;;;;;;;7.20;3.95;;;;;;;14.08;100.00;100627.50;5089309;28;20544;-48
2023/08/06 09:20:19;;;;;;;11.02;4.00;;;;;;;14.08;100.00;100624.84;5095701;28;20058;-47
2023/08/06 09:22:45;;;;;;;7.05;4.13;;;;;;;14.09;100.00;100629.22;5098696;28;20481;-48
2023/08/06 09:25:13;;;;;;;5.70;3.85;;;;;;;14.14;100.00;100634.94;5086761;28;20104;-47
2023/08/06 09:27:38;;;;;;;8.07;4.25;;;;;;;14.18;100.00;100641.66;5094164;28;20024;-52
2023/08/06 09:30:06;;;;;;;6.43;3.85;;;;;;;14.20;100.00;100644.19;5094842;28;20036;-48
2023/08/06 09:32:48;;;;;;;10.52;4.05;;;;;;;14.24;100.00;100650.94;5092798;28;20590;-50
2023/08/06 09:35:17;;;;;;;10.45;4.55;;;;;;;14.22;100.00;100651.09;5090702;28;20024;-50
2023/08/06 09:37:43;;;;;;;7.93;4.38;;;;;;;14.24;100.00;100650.94;5093847;28;20172;-49
2023/08/06 09:40:23;;;;;;;10.27;4.60;;;;;;;14.26;100.00;100659.66;5087491;28;20048;-48
2023/08/06 09:42:50;;;;;;;7.38;4.45;;;;;;;14.27;100.00;100655.97;5085318;28;20123;-49
2023/08/06 09:45:16;;;;;;;9.80;3.95;;;;;;;14.31;100.00;100667.22;5086586;28;20462;-48
2023/08/06 09:47:41;;;;;;;10.38;4.25;;;;;;;14.32;100.00;100666.22;5092188;28;20038;-48
2023/08/06 09:50:15;;;;;;;8.15;3.92;;;;;;;14.34;100.00;100667.78;5087864;28;20409;-48
2023/08/06 09:52:42;;;;;;;10.68;4.22;;;;;;;14.34;100.00;100673.13;5084482;28;20689;-48
2023/08/06 09:55:10;;;;;;;9.93;4.03;;;;;;;14.36;100.00;100670.31;5088121;28;20081;-48
2023/08/06 09:57:36;;;;;;;8.90;4.32;;;;;;;14.36;100.00;100679.16;5089504;28;20453;-49
2023/08/06 10:00:02;;;;;;;5.90;3.90;;;;;;;14.39;100.00;100678.03;5056853;28;20031;-49
2023/08/06 10:02:28;;;;;;;6.75;4.25;;;;;;;14.39;100.00;100678.88;5099552;28;20028;-48
2023/08/06 10:04:56;;;;;;;8.23;4.40;;;;;;;14.39;100.00;100681.53;5095921;28;20473;-48
2023/08/06 10:07:23;;;;;;;5.85;3.90;;;;;;;14.41;100.00;100679.56;5099306;28;20035;-48
2023/08/06 10:09:49;;;;;;;9.57;4.40;;;;;;;14.47;100.00;100682.63;5097988;28;20020;-51
2023/08/06 10:12:18;;;;;;;8.13;4.13;;;;;;;14.46;100.00;100680.97;5098639;28;20534;-49
2023/08/06 10:14:44;;;;;;;8.30;4.07;;;;;;;14.46;100.00;100688.97;5092188;28;20042;-47
2023/08/06 10:17:10;;;;;;;7.57;3.53;;;;;;;14.45;100.00;100688.09;5097890;28;20563;-49
2023/08/06 10:19:36;;;;;;;6.38;3.15;;;;;;;14.41;100.00;100682.22;5093951;28;20054;-49
2023/08/06 10:22:15;;;;;;;6.78;3.72;;;;;;;14.46;100.00;100689.81;5099087;28;20072;-50
2023/08/06 10:24:54;;;;;;;6.68;3.58;;;;;;;14.48;100.00;100690.50;5096727;28;20024;-48
2023/08/06 10:27:32;;;;;;;7.35;3.08;;;;;;;14.49;100.00;100692.19;5094437;28;20412;-49
2023/08/06 10:30:21;;;;;;;5.60;3.50;;;;;;;14.54;100.00;100700.59;5096346;28;20387;-48
2023/08/06 10:32:48;;;;;;;5.38;3.50;;;;;;;14.54;100.00;100695.25;5094410;28;20028;-49
2023/08/06 10:35:49;;;;;;;6.88;4.00;;;;;;;14.57;100.00;100692.31;5094099;28;20028;-49
2023/08/06 10:38:21;;;;;;;5.93;3.78;;;;;;;14.59;100.00;100700.22;5092852;28;20031;-48
2023/08/06 10:41:02;;;;;;;8.80;4.28;;;;;;;14.64;100.00;100697.94;5099470;28;20034;-49
2023/08/06 10:43:30;;;;;;;7.85;3.70;;;;;;;14.65;100.00;100704.09;5094373;28;20055;-49
2023/08/06 10:45:57;;;;;;;6.80;3.83;;;;;;;14.71;100.00;100703.53;5095619;28;20594;-48
2023/08/06 10:48:45;;;;;;;7.55;4.00;;;;;;;14.73;100.00;100702.38;5089563;28;20032;-49
2023/08/06 10:51:12;;;;;;;9.10;4.00;;;;;;;14.77;100.00;100709.13;5087100;28;20035;-45
2023/08/06 10:53:41;;;;;;;6.78;4.25;;;;;;;14.82;100.00;100705.16;5098932;28;20024;-46
2023/08/06 10:56:16;;;;;;;;;;;;;;;14.91;100.00;100709.63;5088004;28;20119;-47
2023/08/06 10:58:43;;;;;;;9.60;4.53;;;;;;;14.88;100.00;100707.25;5092851;28;20377;-46
2023/08/06 11:01:09;;;;;;;8.77;4.22;;;;;;;14.91;100.00;100712.28;5094187;28;20044;-46
2023/08/06 11:03:34;;;;;;;8.18;5.07;;;;;;;14.93;100.00;100704.94;5085995;28;20465;-46
2023/08/06 11:06:00;;;;;;;9.02;4.03;;;;;;;14.97;100.00;100706.31;5095994;28;20073;-47
2023/08/06 11:08:29;;;;;;;8.30;4.40;;;;;;;15.00;100.00;100711.38;5099867;28;20042;-47
2023/08/06 11:10:55;;;;;;;;;;;;;;;15.09;100.00;100723.03;5090666;28;20054;-46
2023/08/06 11:13:21;;;;;;;6.88;4.07;;;;;;;15.03;100.00;100712.94;5090889;28;19904;-45
2023/08/06 11:15:47;;;;;;;7.32;4.65;;;;;;;15.04;100.00;100715.44;5093766;28;20366;-46